sensor_id;sensor_type;location;lat;lon;timestamp;P1;durP1;ratioP1;P2;durP2;ratioP2
81894;SDS011;71358;45.642;13.758;2024-01-11T00:00:37;7.38;;;6.65;;
81894;SDS011;71358;45.642;13.758;2024-01-11T00:03:21;6.55;;;5.85;;
81894;SDS011;71358;45.642;13.758;2024-01-11T00:06:06;7.10;;;6.40;;
81894;SDS011;71358;45.642;13.758;2024-01-11T00:08:50;6.47;;;5.97;;
81894;SDS011;71358;45.642;13.758;2024-01-11T00:11:35;7.50;;;6.45;;
81894;SDS011;71358;45.642;13.758;2024-01-11T00:14:19;7.28;;;6.57;;
81894;SDS011;71358;45.642;13.758;2024-01-11T00:17:04;7.30;;;6.60;;
81894;SDS011;71358;45.642;13.758;2024-01-11T00:19:49;6.60;;;6.00;;
81894;SDS011;71358;45.642;13.758;2024-01-11T00:22:34;7.25;;;6.55;;
81894;SDS011;71358;45.642;13.758;2024-01-11T00:25:18;6.65;;;6.07;;
81894;SDS011;71358;45.642;13.758;2024-01-11T00:28:03;6.35;;;5.75;;
81894;SDS011;71358;45.642;13.758;2024-01-11T00:30:47;7.57;;;6.82;;
81894;SDS011;71358;45.642;13.758;2024-01-11T00:33:32;6.35;;;5.75;;
81894;SDS011;71358;45.642;13.758;2024-01-11T00:36:17;6.40;;;5.80;;
81894;SDS011;71358;45.642;13.758;2024-01-11T00:39:03;6.35;;;5.75;;
81894;SDS011;71358;45.642;13.758;2024-01-11T00:41:48;6.43;;;5.78;;
81894;SDS011;71358;45.642;13.758;2024-01-11T00:44:32;6.55;;;5.85;;
81894;SDS011;71358;45.642;13.758;2024-01-11T00:47:17;6.10;;;5.50;;
81894;SDS011;71358;45.642;13.758;2024-01-11T00:50:01;6.47;;;5.88;;
81894;SDS011;71358;45.642;13.758;2024-01-11T00:52:46;6.18;;;5.57;;
81894;SDS011;71358;45.642;13.758;2024-01-11T00:55:30;6.97;;;5.90;;
81894;SDS011;71358;45.642;13.758;2024-01-11T00:58:15;6.53;;;5.85;;
81894;SDS011;71358;45.642;13.758;2024-01-11T01:00:59;5.97;;;5.38;;
81894;SDS011;71358;45.642;13.758;2024-01-11T01:03:44;5.72;;;5.22;;
81894;SDS011;71358;45.642;13.758;2024-01-11T01:06:29;6.53;;;5.55;;
81894;SDS011;71358;45.642;13.758;2024-01-11T01:09:13;6.18;;;5.60;;
81894;SDS011;71358;45.642;13.758;2024-01-11T01:11:58;6.53;;;5.88;;
81894;SDS011;71358;45.642;13.758;2024-01-11T01:14:43;6.50;;;5.40;;
81894;SDS011;71358;45.642;13.758;2024-01-11T01:17:27;5.47;;;5.00;;
81894;SDS011;71358;45.642;13.758;2024-01-11T01:20:12;6.60;;;6.00;;
81894;SDS011;71358;45.642;13.758;2024-01-11T01:22:56;6.10;;;5.50;;
81894;SDS011;71358;45.642;13.758;2024-01-11T01:25:41;6.30;;;5.70;;
81894;SDS011;71358;45.642;13.758;2024-01-11T01:28:25;5.85;;;5.35;;
81894;SDS011;71358;45.642;13.758;2024-01-11T01:31:10;6.00;;;5.40;;
81894;SDS011;71358;45.642;13.758;2024-01-11T01:33:54;6.25;;;5.65;;
81894;SDS011;71358;45.642;13.758;2024-01-11T01:36:39;5.88;;;5.20;;
81894;SDS011;71358;45.642;13.758;2024-01-11T01:39:23;5.18;;;4.70;;
81894;SDS011;71358;45.642;13.758;2024-01-11T01:42:08;5.55;;;5.05;;
81894;SDS011;71358;45.642;13.758;2024-01-11T01:44:52;5.50;;;5.00;;
81894;SDS011;71358;45.642;13.758;2024-01-11T01:47:37;5.57;;;5.03;;
81894;SDS011;71358;45.642;13.758;2024-01-11T01:50:24;5.20;;;4.70;;
81894;SDS011;71358;45.642;13.758;2024-01-11T01:53:09;6.13;;;5.30;;
81894;SDS011;71358;45.642;13.758;2024-01-11T01:55:54;5.20;;;4.70;;
81894;SDS011;71358;45.642;13.758;2024-01-11T01:58:39;6.70;;;5.28;;
81894;SDS011;71358;45.642;13.758;2024-01-11T02:01:25;4.63;;;4.22;;
81894;SDS011;71358;45.642;13.758;2024-01-11T02:04:11;5.43;;;4.93;;
81894;SDS011;71358;45.642;13.758;2024-01-11T02:06:55;5.47;;;4.97;;
81894;SDS011;71358;45.642;13.758;2024-01-11T02:09:41;5.75;;;5.25;;
81894;SDS011;71358;45.642;13.758;2024-01-11T02:12:28;5.15;;;4.65;;
81894;SDS011;71358;45.642;13.758;2024-01-11T02:15:13;5.93;;;5.32;;
81894;SDS011;71358;45.642;13.758;2024-01-11T02:17:58;5.30;;;4.78;;
81894;SDS011;71358;45.642;13.758;2024-01-11T02:20:43;5.93;;;5.18;;
81894;SDS011;71358;45.642;13.758;2024-01-11T02:23:27;5.30;;;4.80;;
81894;SDS011;71358;45.642;13.758;2024-01-11T02:26:13;5.68;;;5.13;;
81894;SDS011;71358;45.642;13.758;2024-01-11T02:28:58;5.38;;;4.60;;
81894;SDS011;71358;45.642;13.758;2024-01-11T02:31:43;5.10;;;4.70;;
81894;SDS011;71358;45.642;13.758;2024-01-11T02:34:27;5.93;;;5.13;;
81894;SDS011;71358;45.642;13.758;2024-01-11T02:37:12;4.93;;;4.43;;
81894;SDS011;71358;45.642;13.758;2024-01-11T02:39:57;4.90;;;4.38;;
81894;SDS011;71358;45.642;13.758;2024-01-11T02:42:41;4.80;;;4.40;;
81894;SDS011;71358;45.642;13.758;2024-01-11T02:45:26;4.90;;;4.40;;
81894;SDS011;71358;45.642;13.758;2024-01-11T02:48:10;4.80;;;4.22;;
81894;SDS011;71358;45.642;13.758;2024-01-11T02:50:56;4.68;;;4.30;;
81894;SDS011;71358;45.642;13.758;2024-01-11T02:53:41;4.43;;;4.03;;
81894;SDS011;71358;45.642;13.758;2024-01-11T02:56:26;5.03;;;4.53;;
81894;SDS011;71358;45.642;13.758;2024-01-11T02:59:10;5.13;;;4.63;;
81894;SDS011;71358;45.642;13.758;2024-01-11T03:01:54;5.00;;;4.50;;
81894;SDS011;71358;45.642;13.758;2024-01-11T03:04:39;5.10;;;4.43;;
81894;SDS011;71358;45.642;13.758;2024-01-11T03:07:24;4.47;;;4.18;;
81894;SDS011;71358;45.642;13.758;2024-01-11T03:10:08;4.97;;;4.47;;
81894;SDS011;71358;45.642;13.758;2024-01-11T03:12:53;5.05;;;4.65;;
81894;SDS011;71358;45.642;13.758;2024-01-11T03:15:37;4.55;;;4.15;;
81894;SDS011;71358;45.642;13.758;2024-01-11T03:18:22;4.97;;;4.47;;
81894;SDS011;71358;45.642;13.758;2024-01-11T03:21:07;4.50;;;4.10;;
81894;SDS011;71358;45.642;13.758;2024-01-11T03:23:51;4.65;;;4.18;;
81894;SDS011;71358;45.642;13.758;2024-01-11T03:26:36;4.88;;;4.35;;
81894;SDS011;71358;45.642;13.758;2024-01-11T03:29:20;4.22;;;3.80;;
81894;SDS011;71358;45.642;13.758;2024-01-11T03:32:05;4.55;;;4.13;;
81894;SDS011;71358;45.642;13.758;2024-01-11T03:34:50;4.53;;;3.72;;
81894;SDS011;71358;45.642;13.758;2024-01-11T03:37:35;4.70;;;4.30;;
81894;SDS011;71358;45.642;13.758;2024-01-11T03:40:19;4.97;;;4.57;;
81894;SDS011;71358;45.642;13.758;2024-01-11T03:43:04;4.82;;;4.43;;
81894;SDS011;71358;45.642;13.758;2024-01-11T03:45:48;4.53;;;4.13;;
81894;SDS011;71358;45.642;13.758;2024-01-11T03:48:33;4.65;;;4.00;;
81894;SDS011;71358;45.642;13.758;2024-01-11T03:51:19;4.57;;;4.18;;
81894;SDS011;71358;45.642;13.758;2024-01-11T03:54:04;4.50;;;4.10;;
81894;SDS011;71358;45.642;13.758;2024-01-11T03:56:48;4.82;;;4.43;;
81894;SDS011;71358;45.642;13.758;2024-01-11T03:59:33;5.18;;;4.68;;
81894;SDS011;71358;45.642;13.758;2024-01-11T04:02:19;4.93;;;4.43;;
81894;SDS011;71358;45.642;13.758;2024-01-11T04:05:03;4.53;;;4.18;;
81894;SDS011;71358;45.642;13.758;2024-01-11T04:07:48;4.63;;;4.18;;
81894;SDS011;71358;45.642;13.758;2024-01-11T04:10:32;5.40;;;4.90;;
81894;SDS011;71358;45.642;13.758;2024-01-11T04:13:17;4.75;;;4.32;;
81894;SDS011;71358;45.642;13.758;2024-01-11T04:16:05;4.55;;;4.15;;
81894;SDS011;71358;45.642;13.758;2024-01-11T04:18:50;4.55;;;4.15;;
81894;SDS011;71358;45.642;13.758;2024-01-11T04:21:35;4.35;;;3.95;;
81894;SDS011;71358;45.642;13.758;2024-01-11T04:24:22;4.43;;;4.03;;
81894;SDS011;71358;45.642;13.758;2024-01-11T04:27:06;4.32;;;3.92;;
81894;SDS011;71358;45.642;13.758;2024-01-11T04:29:51;4.47;;;4.07;;
81894;SDS011;71358;45.642;13.758;2024-01-11T04:32:35;5.15;;;4.75;;
81894;SDS011;71358;45.642;13.758;2024-01-11T04:35:20;4.47;;;4.10;;
81894;SDS011;71358;45.642;13.758;2024-01-11T04:38:04;4.50;;;4.10;;
81894;SDS011;71358;45.642;13.758;2024-01-11T04:40:49;4.60;;;4.20;;
81894;SDS011;71358;45.642;13.758;2024-01-11T04:43:35;5.13;;;4.63;;
81894;SDS011;71358;45.642;13.758;2024-01-11T04:46:29;4.05;;;3.72;;
81894;SDS011;71358;45.642;13.758;2024-01-11T04:49:13;4.43;;;4.03;;
81894;SDS011;71358;45.642;13.758;2024-01-11T04:51:58;4.47;;;4.07;;
81894;SDS011;71358;45.642;13.758;2024-01-11T04:54:42;4.68;;;4.28;;
81894;SDS011;71358;45.642;13.758;2024-01-11T04:57:27;4.43;;;4.03;;
81894;SDS011;71358;45.642;13.758;2024-01-11T05:00:12;4.50;;;4.10;;
81894;SDS011;71358;45.642;13.758;2024-01-11T05:02:56;5.68;;;4.18;;
81894;SDS011;71358;45.642;13.758;2024-01-11T05:05:41;4.47;;;4.07;;
81894;SDS011;71358;45.642;13.758;2024-01-11T05:08:25;4.28;;;3.88;;
81894;SDS011;71358;45.642;13.758;2024-01-11T05:11:21;4.47;;;4.07;;
81894;SDS011;71358;45.642;13.758;2024-01-11T05:14:07;4.35;;;3.95;;
81894;SDS011;71358;45.642;13.758;2024-01-11T05:16:52;4.65;;;4.07;;
81894;SDS011;71358;45.642;13.758;2024-01-11T05:19:37;4.50;;;4.07;;
81894;SDS011;71358;45.642;13.758;2024-01-11T05:22:21;3.95;;;3.65;;
81894;SDS011;71358;45.642;13.758;2024-01-11T05:25:06;4.63;;;4.22;;
81894;SDS011;71358;45.642;13.758;2024-01-11T05:27:51;4.82;;;4.32;;
81894;SDS011;71358;45.642;13.758;2024-01-11T05:30:35;4.45;;;4.05;;
81894;SDS011;71358;45.642;13.758;2024-01-11T05:33:20;4.53;;;4.13;;
81894;SDS011;71358;45.642;13.758;2024-01-11T05:36:05;5.15;;;4.25;;
81894;SDS011;71358;45.642;13.758;2024-01-11T05:38:50;4.30;;;3.90;;
81894;SDS011;71358;45.642;13.758;2024-01-11T05:41:34;3.92;;;3.53;;
81894;SDS011;71358;45.642;13.758;2024-01-11T05:44:19;3.80;;;3.50;;
81894;SDS011;71358;45.642;13.758;2024-01-11T05:47:04;5.43;;;4.07;;
81894;SDS011;71358;45.642;13.758;2024-01-11T05:49:48;4.18;;;3.78;;
81894;SDS011;71358;45.642;13.758;2024-01-11T05:52:33;3.50;;;3.25;;
81894;SDS011;71358;45.642;13.758;2024-01-11T05:55:18;4.32;;;4.03;;
81894;SDS011;71358;45.642;13.758;2024-01-11T05:58:02;4.15;;;3.75;;
81894;SDS011;71358;45.642;13.758;2024-01-11T06:00:47;4.00;;;3.60;;
81894;SDS011;71358;45.642;13.758;2024-01-11T06:03:31;4.22;;;3.50;;
81894;SDS011;71358;45.642;13.758;2024-01-11T06:06:17;3.47;;;3.17;;
81894;SDS011;71358;45.642;13.758;2024-01-11T06:09:02;3.72;;;3.42;;
81894;SDS011;71358;45.642;13.758;2024-01-11T06:11:48;3.78;;;3.38;;
81894;SDS011;71358;45.642;13.758;2024-01-11T06:14:33;4.18;;;3.78;;
81894;SDS011;71358;45.642;13.758;2024-01-11T06:17:17;4.15;;;3.53;;
81894;SDS011;71358;45.642;13.758;2024-01-11T06:20:02;3.97;;;3.58;;
81894;SDS011;71358;45.642;13.758;2024-01-11T06:22:47;3.92;;;3.50;;
81894;SDS011;71358;45.642;13.758;2024-01-11T06:25:32;3.75;;;3.45;;
81894;SDS011;71358;45.642;13.758;2024-01-11T06:28:17;3.92;;;3.58;;
81894;SDS011;71358;45.642;13.758;2024-01-11T06:31:01;5.10;;;3.70;;
81894;SDS011;71358;45.642;13.758;2024-01-11T06:33:47;3.28;;;3.03;;
81894;SDS011;71358;45.642;13.758;2024-01-11T06:36:31;3.42;;;3.13;;
81894;SDS011;71358;45.642;13.758;2024-01-11T06:39:16;4.05;;;3.33;;
81894;SDS011;71358;45.642;13.758;2024-01-11T06:42:00;3.50;;;3.20;;
81894;SDS011;71358;45.642;13.758;2024-01-11T06:44:45;3.67;;;3.38;;
81894;SDS011;71358;45.642;13.758;2024-01-11T06:47:29;3.95;;;3.30;;
81894;SDS011;71358;45.642;13.758;2024-01-11T06:50:14;3.92;;;3.45;;
81894;SDS011;71358;45.642;13.758;2024-01-11T06:52:59;4.75;;;4.18;;
81894;SDS011;71358;45.642;13.758;2024-01-11T06:55:44;3.92;;;3.55;;
81894;SDS011;71358;45.642;13.758;2024-01-11T06:58:28;3.42;;;3.13;;
81894;SDS011;71358;45.642;13.758;2024-01-11T07:01:13;3.55;;;3.25;;
81894;SDS011;71358;45.642;13.758;2024-01-11T07:03:57;4.45;;;3.40;;
81894;SDS011;71358;45.642;13.758;2024-01-11T07:06:42;4.30;;;3.40;;
81894;SDS011;71358;45.642;13.758;2024-01-11T07:09:27;3.88;;;3.40;;
81894;SDS011;71358;45.642;13.758;2024-01-11T07:12:11;3.47;;;3.17;;
81894;SDS011;71358;45.642;13.758;2024-01-11T07:14:56;4.53;;;3.50;;
81894;SDS011;71358;45.642;13.758;2024-01-11T07:17:40;3.60;;;3.30;;
81894;SDS011;71358;45.642;13.758;2024-01-11T07:20:25;3.28;;;2.97;;
81894;SDS011;71358;45.642;13.758;2024-01-11T07:23:10;4.70;;;3.33;;
81894;SDS011;71358;45.642;13.758;2024-01-11T07:25:54;4.53;;;3.58;;
81894;SDS011;71358;45.642;13.758;2024-01-11T07:28:39;3.67;;;3.28;;
81894;SDS011;71358;45.642;13.758;2024-01-11T07:31:23;3.72;;;3.25;;
81894;SDS011;71358;45.642;13.758;2024-01-11T07:34:08;3.95;;;3.53;;
81894;SDS011;71358;45.642;13.758;2024-01-11T07:36:53;3.80;;;3.38;;
81894;SDS011;71358;45.642;13.758;2024-01-11T07:39:37;6.13;;;3.50;;
81894;SDS011;71358;45.642;13.758;2024-01-11T07:42:22;3.63;;;3.33;;
81894;SDS011;71358;45.642;13.758;2024-01-11T07:45:07;4.00;;;3.60;;
81894;SDS011;71358;45.642;13.758;2024-01-11T07:47:54;3.35;;;3.05;;
81894;SDS011;71358;45.642;13.758;2024-01-11T07:50:38;3.85;;;3.45;;
81894;SDS011;71358;45.642;13.758;2024-01-11T07:53:23;4.00;;;3.60;;
81894;SDS011;71358;45.642;13.758;2024-01-11T07:56:07;4.00;;;3.58;;
81894;SDS011;71358;45.642;13.758;2024-01-11T07:58:52;3.83;;;3.53;;
81894;SDS011;71358;45.642;13.758;2024-01-11T08:01:37;3.50;;;3.20;;
81894;SDS011;71358;45.642;13.758;2024-01-11T08:04:21;3.60;;;3.30;;
81894;SDS011;71358;45.642;13.758;2024-01-11T08:07:06;3.22;;;3.03;;
81894;SDS011;71358;45.642;13.758;2024-01-11T08:09:50;3.97;;;3.47;;
81894;SDS011;71358;45.642;13.758;2024-01-11T08:12:35;4.53;;;3.17;;
81894;SDS011;71358;45.642;13.758;2024-01-11T08:15:21;4.35;;;3.20;;
81894;SDS011;71358;45.642;13.758;2024-01-11T08:18:05;3.80;;;3.03;;
81894;SDS011;71358;45.642;13.758;2024-01-11T08:20:50;3.90;;;3.40;;
81894;SDS011;71358;45.642;13.758;2024-01-11T08:23:35;3.58;;;3.28;;
81894;SDS011;71358;45.642;13.758;2024-01-11T08:26:19;3.97;;;3.53;;
81894;SDS011;71358;45.642;13.758;2024-01-11T08:29:05;4.18;;;3.60;;
81894;SDS011;71358;45.642;13.758;2024-01-11T08:31:50;3.35;;;3.03;;
81894;SDS011;71358;45.642;13.758;2024-01-11T08:34:34;3.40;;;2.80;;
81894;SDS011;71358;45.642;13.758;2024-01-11T08:37:19;3.50;;;3.17;;
81894;SDS011;71358;45.642;13.758;2024-01-11T08:40:03;4.95;;;3.42;;
81894;SDS011;71358;45.642;13.758;2024-01-11T08:42:49;5.30;;;3.40;;
81894;SDS011;71358;45.642;13.758;2024-01-11T08:45:34;5.50;;;3.50;;
81894;SDS011;71358;45.642;13.758;2024-01-11T08:48:19;4.25;;;3.58;;
81894;SDS011;71358;45.642;13.758;2024-01-11T08:51:03;6.22;;;3.63;;
81894;SDS011;71358;45.642;13.758;2024-01-11T08:53:48;4.90;;;3.75;;
81894;SDS011;71358;45.642;13.758;2024-01-11T08:56:32;5.57;;;3.55;;
81894;SDS011;71358;45.642;13.758;2024-01-11T08:59:17;5.22;;;3.78;;
81894;SDS011;71358;45.642;13.758;2024-01-11T09:02:02;3.40;;;3.10;;
81894;SDS011;71358;45.642;13.758;2024-01-11T09:04:47;4.50;;;3.70;;
81894;SDS011;71358;45.642;13.758;2024-01-11T09:07:31;5.88;;;3.17;;
81894;SDS011;71358;45.642;13.758;2024-01-11T09:10:16;4.88;;;3.75;;
81894;SDS011;71358;45.642;13.758;2024-01-11T09:13:00;5.40;;;3.60;;
81894;SDS011;71358;45.642;13.758;2024-01-11T09:15:46;4.90;;;3.55;;
81894;SDS011;71358;45.642;13.758;2024-01-11T09:18:30;3.67;;;3.22;;
81894;SDS011;71358;45.642;13.758;2024-01-11T09:21:15;4.35;;;3.50;;
81894;SDS011;71358;45.642;13.758;2024-01-11T09:23:59;3.53;;;3.22;;
81894;SDS011;71358;45.642;13.758;2024-01-11T09:26:44;4.10;;;3.38;;
81894;SDS011;71358;45.642;13.758;2024-01-11T09:29:29;4.45;;;4.05;;
81894;SDS011;71358;45.642;13.758;2024-01-11T09:32:14;5.40;;;3.75;;
81894;SDS011;71358;45.642;13.758;2024-01-11T09:34:58;4.82;;;4.05;;
81894;SDS011;71358;45.642;13.758;2024-01-11T09:37:43;5.28;;;3.78;;
81894;SDS011;71358;45.642;13.758;2024-01-11T09:40:30;4.18;;;3.75;;
81894;SDS011;71358;45.642;13.758;2024-01-11T09:43:15;5.35;;;3.47;;
81894;SDS011;71358;45.642;13.758;2024-01-11T09:46:00;5.85;;;3.22;;
81894;SDS011;71358;45.642;13.758;2024-01-11T09:48:50;5.13;;;3.67;;
81894;SDS011;71358;45.642;13.758;2024-01-11T09:51:36;5.65;;;3.70;;
81894;SDS011;71358;45.642;13.758;2024-01-11T09:54:24;4.90;;;3.63;;
81894;SDS011;71358;45.642;13.758;2024-01-11T09:57:10;4.43;;;3.58;;
81894;SDS011;71358;45.642;13.758;2024-01-11T09:59:54;6.10;;;3.88;;
81894;SDS011;71358;45.642;13.758;2024-01-11T10:02:40;5.63;;;4.40;;
81894;SDS011;71358;45.642;13.758;2024-01-11T10:05:24;8.55;;;3.72;;
81894;SDS011;71358;45.642;13.758;2024-01-11T10:08:10;6.30;;;4.38;;
81894;SDS011;71358;45.642;13.758;2024-01-11T10:10:55;4.40;;;3.75;;
81894;SDS011;71358;45.642;13.758;2024-01-11T10:13:40;4.55;;;3.83;;
81894;SDS011;71358;45.642;13.758;2024-01-11T10:16:24;4.82;;;4.07;;
81894;SDS011;71358;45.642;13.758;2024-01-11T10:19:09;7.05;;;6.35;;
81894;SDS011;71358;45.642;13.758;2024-01-11T10:21:57;5.28;;;4.78;;
81894;SDS011;71358;45.642;13.758;2024-01-11T10:24:44;5.05;;;4.55;;
81894;SDS011;71358;45.642;13.758;2024-01-11T10:27:29;4.30;;;3.65;;
81894;SDS011;71358;45.642;13.758;2024-01-11T10:30:14;4.60;;;4.20;;
81894;SDS011;71358;45.642;13.758;2024-01-11T10:32:59;4.82;;;4.40;;
81894;SDS011;71358;45.642;13.758;2024-01-11T10:35:44;4.00;;;3.60;;
81894;SDS011;71358;45.642;13.758;2024-01-11T10:38:32;5.32;;;4.82;;
81894;SDS011;71358;45.642;13.758;2024-01-11T10:41:21;4.35;;;3.92;;
81894;SDS011;71358;45.642;13.758;2024-01-11T10:44:06;5.53;;;4.38;;
81894;SDS011;71358;45.642;13.758;2024-01-11T10:47:02;7.22;;;4.43;;
81894;SDS011;71358;45.642;13.758;2024-01-11T10:49:49;9.15;;;4.30;;
81894;SDS011;71358;45.642;13.758;2024-01-11T10:52:36;6.10;;;4.43;;
81894;SDS011;71358;45.642;13.758;2024-01-11T10:55:27;8.32;;;5.07;;
81894;SDS011;71358;45.642;13.758;2024-01-11T10:58:12;8.25;;;5.00;;
81894;SDS011;71358;45.642;13.758;2024-01-11T11:00:59;9.43;;;5.05;;
81894;SDS011;71358;45.642;13.758;2024-01-11T11:03:45;6.65;;;4.80;;
81894;SDS011;71358;45.642;13.758;2024-01-11T11:06:31;10.70;;;5.78;;
81894;SDS011;71358;45.642;13.758;2024-01-11T11:09:17;8.13;;;4.60;;
81894;SDS011;71358;45.642;13.758;2024-01-11T11:12:03;10.40;;;4.40;;
81894;SDS011;71358;45.642;13.758;2024-01-11T11:14:49;5.63;;;4.18;;
81894;SDS011;71358;45.642;13.758;2024-01-11T11:17:35;9.00;;;3.88;;
81894;SDS011;71358;45.642;13.758;2024-01-11T11:20:20;10.48;;;4.32;;
81894;SDS011;71358;45.642;13.758;2024-01-11T11:23:05;9.18;;;4.30;;
81894;SDS011;71358;45.642;13.758;2024-01-11T11:25:51;6.22;;;4.18;;
81894;SDS011;71358;45.642;13.758;2024-01-11T11:28:39;11.45;;;4.47;;
81894;SDS011;71358;45.642;13.758;2024-01-11T11:31:36;8.00;;;4.45;;
81894;SDS011;71358;45.642;13.758;2024-01-11T11:34:40;11.27;;;4.50;;
81894;SDS011;71358;45.642;13.758;2024-01-11T11:37:26;6.28;;;4.13;;
81894;SDS011;71358;45.642;13.758;2024-01-11T11:40:13;7.20;;;4.07;;
81894;SDS011;71358;45.642;13.758;2024-01-11T11:42:58;6.00;;;3.88;;
81894;SDS011;71358;45.642;13.758;2024-01-11T11:45:46;6.03;;;4.00;;
81894;SDS011;71358;45.642;13.758;2024-01-11T11:51:17;5.95;;;4.32;;
81894;SDS011;71358;45.642;13.758;2024-01-11T11:54:02;7.88;;;3.75;;
81894;SDS011;71358;45.642;13.758;2024-01-11T11:56:47;6.22;;;4.25;;
81894;SDS011;71358;45.642;13.758;2024-01-11T11:59:33;7.18;;;4.22;;
81894;SDS011;71358;45.642;13.758;2024-01-11T12:02:20;5.13;;;3.90;;
81894;SDS011;71358;45.642;13.758;2024-01-11T12:05:06;6.10;;;4.00;;
81894;SDS011;71358;45.642;13.758;2024-01-11T12:07:51;4.43;;;4.03;;
81894;SDS011;71358;45.642;13.758;2024-01-11T12:10:37;5.32;;;3.80;;
81894;SDS011;71358;45.642;13.758;2024-01-11T12:13:24;4.05;;;3.20;;
81894;SDS011;71358;45.642;13.758;2024-01-11T12:16:08;4.55;;;3.17;;
81894;SDS011;71358;45.642;13.758;2024-01-11T12:18:53;7.70;;;4.13;;
81894;SDS011;71358;45.642;13.758;2024-01-11T12:21:38;5.63;;;3.72;;
81894;SDS011;71358;45.642;13.758;2024-01-11T12:24:22;4.18;;;3.42;;
81894;SDS011;71358;45.642;13.758;2024-01-11T12:27:07;4.72;;;3.75;;
81894;SDS011;71358;45.642;13.758;2024-01-11T12:29:52;5.63;;;3.63;;
81894;SDS011;71358;45.642;13.758;2024-01-11T12:32:36;5.32;;;3.50;;
81894;SDS011;71358;45.642;13.758;2024-01-11T12:35:21;7.80;;;3.67;;
81894;SDS011;71358;45.642;13.758;2024-01-11T12:38:07;3.75;;;3.03;;
81894;SDS011;71358;45.642;13.758;2024-01-11T12:40:53;5.75;;;3.30;;
81894;SDS011;71358;45.642;13.758;2024-01-11T12:43:37;3.85;;;3.13;;
81894;SDS011;71358;45.642;13.758;2024-01-11T12:46:22;3.60;;;3.08;;
81894;SDS011;71358;45.642;13.758;2024-01-11T12:49:09;5.50;;;3.63;;
81894;SDS011;71358;45.642;13.758;2024-01-11T12:51:54;3.60;;;3.30;;
81894;SDS011;71358;45.642;13.758;2024-01-11T12:54:39;3.58;;;3.05;;
81894;SDS011;71358;45.642;13.758;2024-01-11T12:57:24;6.72;;;3.30;;
81894;SDS011;71358;45.642;13.758;2024-01-11T13:00:10;3.85;;;3.30;;
81894;SDS011;71358;45.642;13.758;2024-01-11T13:02:56;4.47;;;3.67;;
81894;SDS011;71358;45.642;13.758;2024-01-11T13:05:40;3.50;;;2.95;;
81894;SDS011;71358;45.642;13.758;2024-01-11T13:08:25;3.58;;;3.17;;
81894;SDS011;71358;45.642;13.758;2024-01-11T13:11:11;5.18;;;3.70;;
81894;SDS011;71358;45.642;13.758;2024-01-11T13:13:57;4.10;;;3.38;;
81894;SDS011;71358;45.642;13.758;2024-01-11T13:16:45;5.35;;;3.60;;
81894;SDS011;71358;45.642;13.758;2024-01-11T13:19:30;3.97;;;3.25;;
81894;SDS011;71358;45.642;13.758;2024-01-11T13:22:15;5.35;;;3.42;;
81894;SDS011;71358;45.642;13.758;2024-01-11T13:24:59;3.60;;;2.97;;
81894;SDS011;71358;45.642;13.758;2024-01-11T13:27:43;4.78;;;3.20;;
81894;SDS011;71358;45.642;13.758;2024-01-11T13:30:28;4.85;;;3.10;;
81894;SDS011;71358;45.642;13.758;2024-01-11T13:33:13;3.50;;;3.17;;
81894;SDS011;71358;45.642;13.758;2024-01-11T13:36:00;3.17;;;2.92;;
81894;SDS011;71358;45.642;13.758;2024-01-11T13:38:45;4.05;;;3.33;;
81894;SDS011;71358;45.642;13.758;2024-01-11T13:41:30;3.78;;;3.13;;
81894;SDS011;71358;45.642;13.758;2024-01-11T13:44:14;4.25;;;3.15;;
81894;SDS011;71358;45.642;13.758;2024-01-11T13:46:59;3.83;;;2.78;;
81894;SDS011;71358;45.642;13.758;2024-01-11T13:49:44;3.63;;;2.60;;
81894;SDS011;71358;45.642;13.758;2024-01-11T13:52:29;5.45;;;2.78;;
81894;SDS011;71358;45.642;13.758;2024-01-11T13:55:14;4.20;;;3.60;;
81894;SDS011;71358;45.642;13.758;2024-01-11T13:57:58;3.75;;;3.35;;
81894;SDS011;71358;45.642;13.758;2024-01-11T14:00:43;5.68;;;3.45;;
81894;SDS011;71358;45.642;13.758;2024-01-11T14:03:28;5.00;;;3.70;;
81894;SDS011;71358;45.642;13.758;2024-01-11T14:06:13;4.63;;;3.97;;
81894;SDS011;71358;45.642;13.758;2024-01-11T14:08:58;4.88;;;3.45;;
81894;SDS011;71358;45.642;13.758;2024-01-11T14:11:42;4.15;;;3.40;;
81894;SDS011;71358;45.642;13.758;2024-01-11T14:14:27;4.38;;;3.40;;
81894;SDS011;71358;45.642;13.758;2024-01-11T14:17:11;6.55;;;3.55;;
81894;SDS011;71358;45.642;13.758;2024-01-11T14:19:56;5.45;;;3.17;;
81894;SDS011;71358;45.642;13.758;2024-01-11T14:22:41;4.82;;;3.85;;
81894;SDS011;71358;45.642;13.758;2024-01-11T14:25:31;4.95;;;3.70;;
81894;SDS011;71358;45.642;13.758;2024-01-11T14:28:15;4.20;;;3.60;;
81894;SDS011;71358;45.642;13.758;2024-01-11T14:31:00;4.65;;;3.20;;
81894;SDS011;71358;45.642;13.758;2024-01-11T14:33:45;5.88;;;3.13;;
81894;SDS011;71358;45.642;13.758;2024-01-11T14:36:29;6.25;;;3.75;;
81894;SDS011;71358;45.642;13.758;2024-01-11T14:39:14;4.60;;;3.10;;
81894;SDS011;71358;45.642;13.758;2024-01-11T14:41:59;4.55;;;3.45;;
81894;SDS011;71358;45.642;13.758;2024-01-11T14:44:43;4.63;;;3.55;;
81894;SDS011;71358;45.642;13.758;2024-01-11T14:47:28;4.18;;;3.75;;
81894;SDS011;71358;45.642;13.758;2024-01-11T14:50:12;3.80;;;3.13;;
81894;SDS011;71358;45.642;13.758;2024-01-11T14:52:57;5.43;;;3.47;;
81894;SDS011;71358;45.642;13.758;2024-01-11T14:55:41;6.38;;;3.30;;
81894;SDS011;71358;45.642;13.758;2024-01-11T14:58:27;4.40;;;3.33;;
81894;SDS011;71358;45.642;13.758;2024-01-11T15:01:12;3.53;;;3.13;;
81894;SDS011;71358;45.642;13.758;2024-01-11T15:03:56;4.15;;;3.00;;
81894;SDS011;71358;45.642;13.758;2024-01-11T15:06:41;5.25;;;3.78;;
81894;SDS011;71358;45.642;13.758;2024-01-11T15:09:26;5.55;;;3.42;;
81894;SDS011;71358;45.642;13.758;2024-01-11T15:12:10;4.70;;;3.08;;
81894;SDS011;71358;45.642;13.758;2024-01-11T15:14:55;5.78;;;3.33;;
81894;SDS011;71358;45.642;13.758;2024-01-11T15:17:39;4.78;;;3.17;;
81894;SDS011;71358;45.642;13.758;2024-01-11T15:20:24;4.40;;;3.35;;
81894;SDS011;71358;45.642;13.758;2024-01-11T15:23:09;4.50;;;3.60;;
81894;SDS011;71358;45.642;13.758;2024-01-11T15:25:53;3.33;;;3.03;;
81894;SDS011;71358;45.642;13.758;2024-01-11T15:28:38;5.57;;;3.47;;
81894;SDS011;71358;45.642;13.758;2024-01-11T15:31:23;3.78;;;3.00;;
81894;SDS011;71358;45.642;13.758;2024-01-11T15:34:09;4.65;;;3.42;;
81894;SDS011;71358;45.642;13.758;2024-01-11T15:36:53;4.53;;;3.50;;
81894;SDS011;71358;45.642;13.758;2024-01-11T15:39:38;4.90;;;3.88;;
81894;SDS011;71358;45.642;13.758;2024-01-11T15:42:23;4.53;;;3.88;;
81894;SDS011;71358;45.642;13.758;2024-01-11T15:45:08;5.68;;;3.92;;
81894;SDS011;71358;45.642;13.758;2024-01-11T15:47:52;4.68;;;3.72;;
81894;SDS011;71358;45.642;13.758;2024-01-11T15:50:37;5.07;;;3.50;;
81894;SDS011;71358;45.642;13.758;2024-01-11T15:53:21;5.70;;;4.10;;
81894;SDS011;71358;45.642;13.758;2024-01-11T15:56:06;4.40;;;3.65;;
81894;SDS011;71358;45.642;13.758;2024-01-11T15:58:51;5.35;;;3.85;;
81894;SDS011;71358;45.642;13.758;2024-01-11T16:01:35;5.65;;;3.63;;
81894;SDS011;71358;45.642;13.758;2024-01-11T16:04:20;4.70;;;3.55;;
81894;SDS011;71358;45.642;13.758;2024-01-11T16:07:06;4.43;;;3.33;;
81894;SDS011;71358;45.642;13.758;2024-01-11T16:09:51;4.85;;;3.60;;
81894;SDS011;71358;45.642;13.758;2024-01-11T16:12:35;4.20;;;3.80;;
81894;SDS011;71358;45.642;13.758;2024-01-11T16:15:20;3.95;;;3.53;;
81894;SDS011;71358;45.642;13.758;2024-01-11T16:18:05;4.63;;;4.07;;
81894;SDS011;71358;45.642;13.758;2024-01-11T16:20:50;6.22;;;4.30;;